createdAt,value
2019-03-28T00:01:09.590Z,5.89
2019-03-28T00:04:20.193Z,5.92
2019-03-28T00:07:28.098Z,5.87
2019-03-28T00:10:36.088Z,5.97
2019-03-28T00:13:43.976Z,5.86
2019-03-28T00:16:51.886Z,5.89
2019-03-28T00:20:01.050Z,5.99
2019-03-28T00:23:30.690Z,5.92
2019-03-28T00:26:38.815Z,6.04
2019-03-28T00:29:47.846Z,6.04
2019-03-28T00:32:55.662Z,6.09
2019-03-28T00:36:04.744Z,6.10
2019-03-28T00:39:12.702Z,6.11
2019-03-28T00:42:20.516Z,6.06
2019-03-28T00:45:28.416Z,5.87
2019-03-28T00:48:36.224Z,5.80
2019-03-28T00:51:44.591Z,5.74
2019-03-28T00:54:55.276Z,5.74
2019-03-28T00:58:03.381Z,5.74
2019-03-28T01:01:11.310Z,5.73
2019-03-28T01:04:19.327Z,5.92
2019-03-28T01:07:27.279Z,5.87
2019-03-28T01:10:35.144Z,6.04
2019-03-28T01:13:43.307Z,6.08
2019-03-28T01:16:51.142Z,5.98
2019-03-28T01:20:02.736Z,5.82
2019-03-28T01:23:10.672Z,5.98
2019-03-28T01:26:18.516Z,5.93
2019-03-28T01:29:26.557Z,5.99
2019-03-28T01:32:34.390Z,6.01
2019-03-28T01:35:42.342Z,6.03
2019-03-28T01:38:50.022Z,6.01
2019-03-28T01:42:00.680Z,5.87
2019-03-28T01:45:08.773Z,5.97
2019-03-28T01:48:16.647Z,5.91
2019-03-28T01:51:24.563Z,5.92
2019-03-28T01:54:32.672Z,5.92
2019-03-28T01:57:40.887Z,5.92
2019-03-28T02:00:48.955Z,5.96
2019-03-28T02:03:56.870Z,5.98
2019-03-28T02:07:04.826Z,5.95
2019-03-28T02:10:13.353Z,5.94
2019-03-28T02:13:22.203Z,5.79
2019-03-28T02:16:30.683Z,5.91
2019-03-28T02:19:38.715Z,5.91
2019-03-28T02:22:46.531Z,5.89
2019-03-28T02:25:56.884Z,5.74
2019-03-28T02:29:04.731Z,5.75
2019-03-28T02:32:12.601Z,5.69
2019-03-28T02:35:20.579Z,5.64
2019-03-28T02:38:30.240Z,5.77
2019-03-28T02:41:38.054Z,5.85
2019-03-28T02:44:48.745Z,5.79
2019-03-28T02:47:56.750Z,5.75
2019-03-28T02:51:04.588Z,5.76
2019-03-28T02:54:12.552Z,5.71
2019-03-28T02:57:21.603Z,5.55
2019-03-28T03:00:29.398Z,5.64
2019-03-28T03:03:37.205Z,5.65
2019-03-28T03:06:44.961Z,5.69
2019-03-28T03:09:52.924Z,5.67
2019-03-28T03:13:00.797Z,5.64
2019-03-28T03:16:10.447Z,5.64
2019-03-28T03:19:18.081Z,5.53
2019-03-28T03:22:25.989Z,5.65
2019-03-28T03:25:33.851Z,5.69
2019-03-28T03:28:42.007Z,5.60
2019-03-28T03:31:49.877Z,5.62
2019-03-28T03:34:57.677Z,5.60
2019-03-28T03:38:05.728Z,5.53
2019-03-28T03:41:13.610Z,5.56
2019-03-28T03:44:21.384Z,5.54
2019-03-28T03:47:29.229Z,5.55
2019-03-28T03:50:37.001Z,5.62
2019-03-28T03:53:45.122Z,5.56
2019-03-28T03:56:52.797Z,5.57
2019-03-28T04:00:00.959Z,5.62
2019-03-28T04:03:08.857Z,5.57
2019-03-28T04:06:16.777Z,5.47
2019-03-28T04:09:24.526Z,5.53
2019-03-28T04:12:32.353Z,5.62
2019-03-28T04:15:40.253Z,5.59
2019-03-28T04:18:48.132Z,5.54
2019-03-28T04:21:55.811Z,5.59
2019-03-28T04:25:03.685Z,5.59
2019-03-28T04:28:12.630Z,5.64
2019-03-28T04:31:21.130Z,5.66
2019-03-28T04:34:29.260Z,5.66
2019-03-28T04:37:36.954Z,5.55
2019-03-28T04:40:44.851Z,5.58
2019-03-28T04:43:55.659Z,5.61
2019-03-28T04:47:04.122Z,5.59
2019-03-28T04:50:12.281Z,5.56
2019-03-28T04:53:22.075Z,5.57
2019-03-28T04:56:29.938Z,5.59
2019-03-28T04:59:44.774Z,5.59
2019-03-28T05:02:55.103Z,5.62
2019-03-28T05:06:02.916Z,5.60
2019-03-28T05:09:10.770Z,5.57
2019-03-28T05:12:18.675Z,5.58
2019-03-28T05:15:26.468Z,5.57
2019-03-28T05:18:34.175Z,5.62
2019-03-28T05:21:41.827Z,5.56
2019-03-28T05:24:49.756Z,5.56
2019-03-28T05:27:58.087Z,5.51
2019-03-28T05:31:05.910Z,5.56
2019-03-28T05:34:13.718Z,5.57
2019-03-28T05:37:21.471Z,5.55
2019-03-28T05:40:29.209Z,5.58
2019-03-28T05:43:36.980Z,5.59
2019-03-28T05:46:44.840Z,5.58
2019-03-28T05:49:52.733Z,5.57
2019-03-28T05:53:00.733Z,5.59
2019-03-28T05:56:08.582Z,5.63
2019-03-28T05:59:16.449Z,5.61
2019-03-28T06:02:24.547Z,5.64
2019-03-28T06:05:33.010Z,5.64
2019-03-28T06:08:40.837Z,5.62
2019-03-28T06:11:48.663Z,5.69
2019-03-28T06:14:56.538Z,5.63
2019-03-28T06:18:04.414Z,5.67
2019-03-28T06:21:12.137Z,5.69
2019-03-28T06:24:20.012Z,5.65
2019-03-28T06:27:27.772Z,5.69
2019-03-28T06:30:35.489Z,5.64
2019-03-28T06:33:43.202Z,5.66
2019-03-28T06:36:51.660Z,5.76
2019-03-28T06:39:59.485Z,5.66
2019-03-28T06:43:07.342Z,5.68
2019-03-28T06:46:15.329Z,5.77
2019-03-28T06:49:23.356Z,5.72
2019-03-28T06:52:31.173Z,5.75
2019-03-28T06:55:38.965Z,5.74
2019-03-28T06:58:46.871Z,5.76
2019-03-28T07:01:54.777Z,5.77
2019-03-28T07:05:02.556Z,5.80
2019-03-28T07:08:10.654Z,5.80
2019-03-28T07:11:18.477Z,5.82
2019-03-28T07:14:26.287Z,5.81
2019-03-28T07:17:34.334Z,5.86
2019-03-28T07:20:43.260Z,5.86
2019-03-28T07:23:50.930Z,5.87
2019-03-28T07:27:00.585Z,5.89
2019-03-28T07:30:09.951Z,5.89
2019-03-28T07:33:17.838Z,5.92
2019-03-28T07:36:25.987Z,5.91
2019-03-28T07:39:34.146Z,5.92
2019-03-28T07:42:44.711Z,5.96
2019-03-28T07:45:53.326Z,5.97
2019-03-28T07:49:01.237Z,6.01
2019-03-28T07:52:09.144Z,6.01
2019-03-28T07:55:16.995Z,6.02
2019-03-28T07:58:24.789Z,6.03
2019-03-28T08:01:32.552Z,6.05
2019-03-28T08:04:40.598Z,6.07
2019-03-28T08:07:49.484Z,6.08
2019-03-28T08:10:58.671Z,6.09
2019-03-28T08:14:06.789Z,6.12
2019-03-28T08:17:14.570Z,6.17
2019-03-28T08:20:22.855Z,6.20
2019-03-28T08:23:30.689Z,6.22
2019-03-28T08:26:38.640Z,6.27
2019-03-28T08:29:46.657Z,6.28
2019-03-28T08:32:54.503Z,6.29
2019-03-28T08:36:02.834Z,6.33
2019-03-28T08:39:11.201Z,6.35
2019-03-28T08:42:19.654Z,6.39
2019-03-28T08:45:27.627Z,6.38
2019-03-28T08:48:35.475Z,6.40
2019-03-28T08:51:43.533Z,6.42
2019-03-28T08:54:51.293Z,6.41
2019-03-28T08:57:59.402Z,6.42
2019-03-28T09:01:08.391Z,6.45
2019-03-28T09:04:16.215Z,6.44
2019-03-28T09:07:24.287Z,6.49
2019-03-28T09:10:32.004Z,6.52
2019-03-28T09:13:40.146Z,6.49
2019-03-28T09:16:47.860Z,6.49
2019-03-28T09:19:55.654Z,6.51
2019-03-28T09:23:03.437Z,6.55
2019-03-28T09:26:11.375Z,6.60
2019-03-28T09:29:19.351Z,6.59
2019-03-28T09:32:27.282Z,6.58
2019-03-28T09:35:35.112Z,6.64
2019-03-28T09:38:44.770Z,6.66
2019-03-28T09:41:52.565Z,6.68
2019-03-28T09:45:00.456Z,6.74
2019-03-28T09:48:11.498Z,6.75
2019-03-28T09:51:17.810Z,6.73
2019-03-28T09:54:25.755Z,6.81
2019-03-28T09:57:33.724Z,6.84
2019-03-28T10:00:42.172Z,6.85
2019-03-28T10:03:50.273Z,6.84
2019-03-28T10:06:58.260Z,6.91
2019-03-28T10:10:09.148Z,6.90
2019-03-28T10:13:16.554Z,6.95
2019-03-28T10:16:25.684Z,6.95
2019-03-28T10:19:33.509Z,6.95
2019-03-28T10:22:42.795Z,7.01
2019-03-28T10:25:50.490Z,7.03
2019-03-28T10:28:58.392Z,7.09
2019-03-28T10:32:06.537Z,7.14
2019-03-28T10:35:27.538Z,7.09
2019-03-28T10:38:35.286Z,7.08
2019-03-28T10:41:46.015Z,7.08
2019-03-28T10:44:54.124Z,7.05
2019-03-28T10:48:01.948Z,7.11
2019-03-28T10:51:09.850Z,7.16
2019-03-28T10:54:20.635Z,7.21
2019-03-28T10:57:31.974Z,7.10
2019-03-28T11:00:37.345Z,7.17
2019-03-28T11:03:45.499Z,7.14
2019-03-28T11:06:53.379Z,7.17
2019-03-28T11:10:01.363Z,7.30
2019-03-28T11:13:09.822Z,7.31
2019-03-28T11:16:17.925Z,7.34
2019-03-28T11:19:27.141Z,7.38
2019-03-28T11:22:34.911Z,7.54
2019-03-28T11:25:44.616Z,7.56
2019-03-28T11:28:52.449Z,7.50
2019-03-28T11:32:00.521Z,7.45
2019-03-28T11:35:09.043Z,7.54
2019-03-28T11:38:17.318Z,7.58
2019-03-28T11:41:25.097Z,7.51
2019-03-28T11:44:32.958Z,7.46
2019-03-28T11:47:44.576Z,7.44
2019-03-28T11:50:52.476Z,7.44
2019-03-28T11:54:00.338Z,7.45
2019-03-28T11:57:08.245Z,7.46
2019-03-28T12:00:17.508Z,7.49
2019-03-28T12:03:26.789Z,7.51
2019-03-28T12:06:34.624Z,7.55
2019-03-28T12:09:42.668Z,7.55
2019-03-28T12:12:50.395Z,7.60
2019-03-28T12:15:58.247Z,7.53
2019-03-28T12:19:05.945Z,7.61
2019-03-28T12:22:13.996Z,7.51
2019-03-28T12:25:21.732Z,7.58
2019-03-28T12:28:29.467Z,7.53
2019-03-28T12:31:38.398Z,7.62
2019-03-28T12:34:46.202Z,7.67
2019-03-28T12:37:53.966Z,7.68
2019-03-28T12:41:01.960Z,7.72
2019-03-28T12:44:09.837Z,7.72
2019-03-28T12:47:23.459Z,7.61
2019-03-28T12:50:31.610Z,8.34
2019-03-28T12:53:40.914Z,8.19
2019-03-28T12:56:49.720Z,8.53
2019-03-28T12:59:57.737Z,8.64
2019-03-28T13:03:05.518Z,8.59
2019-03-28T13:06:13.930Z,8.44
2019-03-28T13:09:21.713Z,8.57
2019-03-28T13:12:30.514Z,8.73
2019-03-28T13:15:38.391Z,8.83
2019-03-28T13:18:47.385Z,8.69
2019-03-28T13:21:55.122Z,8.66
2019-03-28T13:25:10.283Z,8.85
2019-03-28T13:28:20.571Z,8.64
2019-03-28T13:31:28.616Z,8.66
2019-03-28T13:34:36.556Z,8.99
2019-03-28T13:37:44.324Z,8.99
2019-03-28T13:40:52.130Z,9.11
2019-03-28T13:44:00.958Z,9.08
2019-03-28T13:47:08.885Z,8.87
2019-03-28T13:50:17.656Z,8.93
2019-03-28T13:53:38.405Z,9.10
2019-03-28T13:56:38.333Z,8.90
2019-03-28T13:59:47.124Z,8.94
2019-03-28T14:02:58.838Z,8.96
2019-03-28T14:06:04.770Z,8.92
2019-03-28T14:09:15.683Z,8.79
2019-03-28T14:12:23.403Z,9.02
2019-03-28T14:15:31.500Z,9.36
2019-03-28T14:18:44.924Z,9.12
2019-03-28T14:21:49.843Z,9.24
2019-03-28T14:24:57.719Z,9.02
2019-03-28T14:28:06.009Z,9.13
2019-03-28T14:31:14.181Z,9.32
2019-03-28T14:34:22.057Z,8.91
2019-03-28T14:37:29.865Z,8.78
2019-03-28T14:40:37.903Z,9.05
2019-03-28T14:43:45.695Z,8.82
2019-03-28T14:46:53.508Z,8.80
2019-03-28T14:50:01.478Z,8.58
2019-03-28T14:53:10.246Z,8.84
2019-03-28T14:56:18.810Z,8.77
2019-03-28T14:59:32.703Z,9.10
2019-03-28T15:02:37.849Z,9.05
2019-03-28T15:05:45.650Z,8.81
2019-03-28T15:08:54.729Z,8.91
2019-03-28T15:12:02.459Z,8.90
2019-03-28T15:15:10.325Z,8.88
2019-03-28T15:18:18.348Z,8.83
2019-03-28T15:21:26.167Z,8.82
2019-03-28T15:24:34.109Z,8.93
2019-03-28T15:27:41.897Z,8.98
2019-03-28T15:30:51.588Z,8.97
2019-03-28T15:33:59.525Z,8.67
2019-03-28T15:37:07.389Z,8.85
2019-03-28T15:40:15.281Z,8.76
2019-03-28T15:43:23.478Z,8.93
2019-03-28T15:46:31.311Z,8.85
2019-03-28T15:49:42.378Z,8.85
2019-03-28T15:52:50.275Z,8.82
2019-03-28T15:55:58.133Z,8.71
2019-03-28T15:59:06.171Z,8.65
2019-03-28T16:02:14.230Z,8.71
2019-03-28T16:05:22.013Z,8.69
2019-03-28T16:08:29.828Z,8.74
2019-03-28T16:11:37.625Z,8.76
2019-03-28T16:14:48.819Z,8.75
2019-03-28T16:17:57.798Z,8.64
2019-03-28T16:21:06.451Z,8.68
2019-03-28T16:24:15.338Z,8.60
2019-03-28T16:27:23.220Z,8.64
2019-03-28T16:30:53.774Z,8.63
2019-03-28T16:34:12.323Z,8.70
2019-03-28T16:37:57.918Z,8.83
2019-03-28T16:41:06.028Z,8.71
2019-03-28T16:44:14.097Z,8.59
2019-03-28T16:48:31.047Z,8.58
2019-03-28T16:54:53.090Z,8.61
2019-03-28T16:58:02.040Z,8.51
2019-03-28T17:01:13.368Z,8.51
2019-03-28T17:04:24.183Z,8.59
2019-03-28T17:07:35.937Z,8.56
2019-03-28T17:11:47.582Z,8.44
2019-03-28T17:18:11.259Z,8.52
2019-03-28T17:21:19.585Z,8.53
2019-03-28T17:24:31.801Z,8.20
2019-03-28T17:28:20.994Z,8.09
2019-03-28T17:31:39.188Z,8.13
2019-03-28T17:34:48.023Z,8.04
2019-03-28T17:37:57.215Z,8.07
2019-03-28T17:41:06.649Z,8.47
2019-03-28T17:44:15.862Z,8.28
2019-03-28T17:47:23.693Z,8.55
2019-03-28T17:50:31.642Z,8.61
2019-03-28T17:53:42.139Z,8.64
2019-03-28T17:56:50.153Z,8.54
2019-03-28T17:59:57.989Z,8.49
2019-03-28T18:03:09.834Z,8.51
2019-03-28T18:06:18.219Z,8.30
2019-03-28T18:09:26.235Z,8.32
2019-03-28T18:12:34.092Z,8.33
2019-03-28T18:15:56.891Z,8.47
2019-03-28T18:19:05.940Z,8.20
2019-03-28T18:22:14.779Z,8.30
2019-03-28T18:25:22.667Z,8.44
2019-03-28T18:28:33.674Z,8.53
2019-03-28T18:31:50.327Z,8.32
2019-03-28T18:35:04.691Z,8.34
2019-03-28T18:38:04.063Z,8.14
2019-03-28T18:41:15.740Z,8.24
2019-03-28T18:44:23.640Z,8.34
2019-03-28T18:47:31.574Z,8.36
2019-03-28T18:50:41.119Z,8.33
2019-03-28T18:53:50.146Z,8.21
2019-03-28T18:56:58.233Z,8.41
2019-03-28T19:00:08.450Z,8.42
2019-03-28T19:03:16.351Z,8.37
2019-03-28T19:06:24.221Z,8.22
2019-03-28T19:09:33.137Z,8.27
2019-03-28T19:12:42.870Z,8.22
2019-03-28T19:15:52.122Z,8.26
2019-03-28T19:19:00.242Z,8.24
2019-03-28T19:22:08.497Z,8.20
2019-03-28T19:25:20.951Z,8.15
2019-03-28T19:28:29.640Z,8.12
2019-03-28T19:31:37.583Z,8.10
2019-03-28T19:34:45.472Z,8.11
2019-03-28T19:37:53.621Z,8.09
2019-03-28T19:41:01.478Z,8.05
2019-03-28T19:44:13.309Z,8.09
2019-03-28T19:47:23.694Z,8.14
2019-03-28T19:50:34.122Z,8.13
2019-03-28T19:53:45.354Z,8.08
2019-03-28T19:56:57.565Z,8.01
2019-03-28T20:00:09.237Z,8.06
2019-03-28T20:03:23.622Z,8.14
2019-03-28T20:06:33.547Z,8.11
2019-03-28T20:09:47.795Z,8.08
2019-03-28T20:13:00.398Z,8.01
2019-03-28T20:16:16.389Z,7.90
2019-03-28T20:19:24.359Z,7.94
2019-03-28T20:22:33.115Z,8.00
2019-03-28T20:25:42.781Z,7.96
2019-03-28T20:28:50.583Z,8.00
2019-03-28T20:31:58.615Z,7.98
2019-03-28T20:35:10.446Z,7.91
2019-03-28T20:38:18.093Z,7.97
2019-03-28T20:41:25.868Z,8.11
2019-03-28T20:44:33.696Z,8.02
2019-03-28T20:47:44.038Z,8.03
2019-03-28T20:50:52.443Z,8.07
2019-03-28T20:54:00.683Z,8.13
2019-03-28T20:57:10.193Z,8.14
2019-03-28T21:00:28.269Z,8.12
2019-03-28T21:03:36.709Z,8.18
2019-03-28T21:06:44.952Z,8.13
2019-03-28T21:09:52.768Z,8.14
2019-03-28T21:13:00.731Z,8.13
2019-03-28T21:16:11.795Z,8.12
2019-03-28T21:19:19.052Z,8.04
2019-03-28T21:22:27.027Z,8.08
2019-03-28T21:25:34.888Z,8.01
2019-03-28T21:28:47.383Z,7.95
2019-03-28T21:31:54.895Z,7.97
2019-03-28T21:35:02.869Z,7.99
2019-03-28T21:38:11.848Z,7.89
2019-03-28T21:41:20.279Z,7.82
2019-03-28T21:44:28.354Z,7.82
2019-03-28T21:47:36.140Z,7.75
2019-03-28T21:50:44.055Z,7.76
2019-03-28T21:53:51.939Z,7.91
2019-03-28T21:56:59.794Z,7.85
2019-03-28T22:00:10.172Z,7.85
2019-03-28T22:03:18.090Z,7.91
2019-03-28T22:06:27.081Z,7.88
2019-03-28T22:09:35.022Z,7.92
2019-03-28T22:12:43.157Z,7.88
2019-03-28T22:15:50.786Z,7.86
2019-03-28T22:18:59.790Z,7.87
2019-03-28T22:22:08.343Z,7.89
2019-03-28T22:25:16.395Z,7.70
2019-03-28T22:28:24.369Z,7.80
2019-03-28T22:31:32.368Z,7.80
2019-03-28T22:34:40.321Z,7.82
2019-03-28T22:37:48.182Z,7.82
2019-03-28T22:40:56.951Z,7.76
2019-03-28T22:44:07.728Z,7.58
2019-03-28T22:47:15.670Z,7.65
2019-03-28T22:50:24.091Z,7.76
2019-03-28T22:53:32.258Z,7.71
2019-03-28T22:56:40.150Z,7.77
2019-03-28T22:59:48.007Z,7.79
2019-03-28T23:02:56.067Z,7.77
2019-03-28T23:06:07.142Z,7.56
2019-03-28T23:09:15.033Z,7.73
2019-03-28T23:12:22.925Z,7.70
2019-03-28T23:15:30.912Z,7.80
2019-03-28T23:18:39.829Z,7.79
2019-03-28T23:21:47.691Z,7.74
2019-03-28T23:24:55.639Z,7.41
2019-03-28T23:28:03.506Z,7.45
2019-03-28T23:31:11.285Z,7.58
2019-03-28T23:34:20.120Z,7.60
2019-03-28T23:37:28.127Z,7.59
2019-03-28T23:40:35.822Z,7.63
2019-03-28T23:43:43.610Z,7.67
2019-03-28T23:46:52.653Z,7.67
2019-03-28T23:50:00.506Z,7.57
2019-03-28T23:53:08.943Z,7.64
2019-03-28T23:56:17.095Z,7.70
2019-03-28T23:59:24.803Z,7.39
